createdAt,value
2023-02-11T00:01:53.519Z,102307.34
2023-02-11T00:04:22.419Z,102302.81
2023-02-11T00:06:50.904Z,102295.59
2023-02-11T00:09:20.561Z,102302.69
2023-02-11T00:11:49.203Z,102308.66
2023-02-11T00:14:17.778Z,102308.94
2023-02-11T00:16:46.378Z,102311.84
2023-02-11T00:19:14.838Z,102303.88
2023-02-11T00:21:43.049Z,102303.56
2023-02-11T00:24:11.462Z,102301.09
2023-02-11T00:26:41.290Z,102298.28
2023-02-11T00:29:10.515Z,102300.22
2023-02-11T00:31:38.927Z,102299.47
2023-02-11T00:34:07.722Z,102304.44
2023-02-11T00:36:35.984Z,102294.72
2023-02-11T00:39:04.223Z,102301.84
2023-02-11T00:41:32.840Z,102303.38
2023-02-11T00:44:03.721Z,102298.84
2023-02-11T00:46:32.224Z,102303.66
2023-02-11T00:49:01.015Z,102302.47
2023-02-11T00:51:30.194Z,102294.72
2023-02-11T00:53:58.277Z,102291.38
2023-02-11T00:56:26.546Z,102290.97
2023-02-11T00:58:54.888Z,102292.03
2023-02-11T01:01:24.889Z,102292.38
2023-02-11T01:03:52.969Z,102292.69
2023-02-11T01:06:23.632Z,102300.09
2023-02-11T01:08:51.691Z,102305.38
2023-02-11T01:11:21.883Z,102307.00
2023-02-11T01:13:51.129Z,102313.69
2023-02-11T01:16:19.884Z,102307.22
2023-02-11T01:18:49.455Z,102304.31
2023-02-11T01:21:18.971Z,102299.16
2023-02-11T01:23:47.193Z,102293.75
2023-02-11T01:26:15.344Z,102299.88
2023-02-11T01:28:43.539Z,102297.97
2023-02-11T01:31:11.819Z,102300.00
2023-02-11T01:33:40.034Z,102288.38
2023-02-11T01:36:09.911Z,102289.34
2023-02-11T01:38:38.086Z,102278.00
2023-02-11T01:41:07.660Z,102274.13
2023-02-11T01:43:36.812Z,102268.13
2023-02-11T01:46:14.086Z,102276.94
2023-02-11T01:48:43.976Z,102278.00
2023-02-11T01:51:15.361Z,102275.31
2023-02-11T01:54:02.544Z,102273.72
2023-02-11T01:56:49.600Z,102273.06
2023-02-11T01:59:19.969Z,102271.53
2023-02-11T02:01:52.205Z,102268.31
2023-02-11T02:04:21.134Z,102270.69
2023-02-11T02:06:54.292Z,102273.59
2023-02-11T02:09:24.438Z,102267.44
2023-02-11T02:11:52.804Z,102266.59
2023-02-11T02:14:21.090Z,102262.94
2023-02-11T02:16:49.353Z,102263.56
2023-02-11T02:19:35.789Z,102262.59
2023-02-11T02:22:17.891Z,102259.13
2023-02-11T02:24:57.919Z,102260.97
2023-02-11T02:27:31.319Z,102273.16
2023-02-11T02:30:14.324Z,102269.91
2023-02-11T02:32:57.365Z,102274.31
2023-02-11T02:35:30.722Z,102271.28
2023-02-11T02:38:02.717Z,102277.44
2023-02-11T02:40:32.843Z,102277.66
2023-02-11T02:43:02.148Z,102278.19
2023-02-11T02:45:30.489Z,102279.25
2023-02-11T02:47:58.727Z,102280.97
2023-02-11T02:50:30.892Z,102279.91
2023-02-11T02:53:05.977Z,102274.31
2023-02-11T02:55:41.195Z,102268.72
2023-02-11T02:58:22.828Z,102267.03
2023-02-11T03:00:55.905Z,102267.88
2023-02-11T03:03:28.613Z,102267.19
2023-02-11T03:06:01.476Z,102265.50
2023-02-11T03:08:33.468Z,102261.81
2023-02-11T03:11:03.047Z,102264.13
2023-02-11T03:13:33.847Z,102266.34
2023-02-11T03:16:06.031Z,102268.09
2023-02-11T03:18:36.547Z,102261.72
2023-02-11T03:21:09.081Z,102250.22
2023-02-11T03:23:38.737Z,102243.75
2023-02-11T03:26:10.476Z,102242.88
2023-02-11T03:28:43.706Z,102244.50
2023-02-11T03:31:13.707Z,102241.81
2023-02-11T03:33:44.300Z,102238.38
2023-02-11T03:36:18.549Z,102239.44
2023-02-11T03:38:49.275Z,102231.25
2023-02-11T03:41:19.272Z,102239.34
2023-02-11T03:43:50.043Z,102236.84
2023-02-11T03:46:20.609Z,102237.19
2023-02-11T03:48:50.955Z,102229.13
2023-02-11T03:51:22.336Z,102227.59
2023-02-11T03:53:53.974Z,102231.03
2023-02-11T03:56:24.914Z,102220.50
2023-02-11T03:58:52.992Z,102219.22
2023-02-11T04:01:21.126Z,102220.50
2023-02-11T04:03:49.239Z,102215.13
2023-02-11T04:06:17.315Z,102221.16
2023-02-11T04:08:46.957Z,102223.97
2023-02-11T04:11:15.036Z,102218.75
2023-02-11T04:13:43.391Z,102218.25
2023-02-11T04:16:11.387Z,102227.19
2023-02-11T04:18:39.426Z,102225.66
2023-02-11T04:21:07.616Z,102222.56
2023-02-11T04:23:35.639Z,102229.53
2023-02-11T04:26:05.574Z,102228.69
2023-02-11T04:28:35.018Z,102223.53
2023-02-11T04:31:03.259Z,102217.94
2023-02-11T04:33:31.410Z,102218.78
2023-02-11T04:35:59.576Z,102215.00
2023-02-11T04:38:27.901Z,102220.41
2023-02-11T04:40:55.949Z,102212.53
2023-02-11T04:43:25.455Z,102216.19
2023-02-11T04:45:53.814Z,102211.47
2023-02-11T04:48:22.095Z,102215.13
2023-02-11T04:50:50.268Z,102205.88
2023-02-11T04:53:18.367Z,102214.06
2023-02-11T04:55:46.749Z,102210.59
2023-02-11T04:58:14.839Z,102212.97
2023-02-11T05:00:44.500Z,102208.44
2023-02-11T05:03:13.078Z,102210.69
2023-02-11T05:05:41.606Z,102208.88
2023-02-11T05:08:10.259Z,102204.81
2023-02-11T05:10:38.535Z,102207.50
2023-02-11T05:13:06.685Z,102203.84
2023-02-11T05:15:34.860Z,102204.56
2023-02-11T05:18:04.600Z,102211.03
2023-02-11T05:20:32.680Z,102208.66
2023-02-11T05:23:00.999Z,102208.44
2023-02-11T05:25:29.025Z,102203.50
2023-02-11T05:27:57.220Z,102200.81
2023-02-11T05:30:25.432Z,102202.84
2023-02-11T05:32:53.589Z,102207.28
2023-02-11T05:35:23.232Z,102212.53
2023-02-11T05:37:51.392Z,102207.38
2023-02-11T05:40:19.668Z,102205.44
2023-02-11T05:42:47.709Z,102208.00
2023-02-11T05:45:15.786Z,102217.81
2023-02-11T05:47:43.985Z,102221.56
2023-02-11T05:50:12.066Z,102227.41
2023-02-11T05:52:41.622Z,102231.81
2023-02-11T05:55:09.980Z,102226.84
2023-02-11T05:57:38.140Z,102232.09
2023-02-11T06:00:07.394Z,102224.91
2023-02-11T06:02:41.453Z,102225.34
2023-02-11T06:05:10.018Z,102222.44
2023-02-11T06:07:38.247Z,102232.78
2023-02-11T06:10:08.950Z,102239.88
2023-02-11T06:12:37.525Z,102240.09
2023-02-11T06:15:06.067Z,102235.00
2023-02-11T06:17:34.520Z,102240.28
2023-02-11T06:20:02.973Z,102235.91
2023-02-11T06:22:31.871Z,102236.00
2023-02-11T06:25:02.096Z,102235.56
2023-02-11T06:27:33.234Z,102237.41
2023-02-11T06:30:01.413Z,102224.13
2023-02-11T06:32:46.158Z,102220.59
2023-02-11T06:35:15.568Z,102217.91
2023-02-11T06:37:44.131Z,102225.00
2023-02-11T06:40:12.760Z,102225.00
2023-02-11T06:42:42.575Z,102229.81
2023-02-11T06:45:11.234Z,102228.97
2023-02-11T06:47:39.456Z,102234.03
2023-02-11T06:50:08.286Z,102239.84
2023-02-11T06:52:36.494Z,102245.00
2023-02-11T06:55:04.789Z,102241.44
2023-02-11T06:57:33.481Z,102251.34
2023-02-11T07:00:03.051Z,102258.47
2023-02-11T07:02:31.931Z,102252.31
2023-02-11T07:05:00.159Z,102255.78
2023-02-11T07:07:28.721Z,102257.69
2023-02-11T07:09:56.810Z,102266.53
2023-02-11T07:12:25.082Z,102261.38
2023-02-11T07:14:53.176Z,102262.63
2023-02-11T07:17:22.798Z,102261.38
2023-02-11T07:19:51.087Z,102261.38
2023-02-11T07:22:19.156Z,102265.00
2023-02-11T07:24:47.391Z,102267.50
2023-02-11T07:27:15.630Z,102259.06
2023-02-11T07:29:45.921Z,102259.22
2023-02-11T07:32:14.271Z,102265.66
2023-02-11T07:34:43.843Z,102276.84
2023-02-11T07:37:12.094Z,102264.81
2023-02-11T07:39:40.192Z,102265.56
2023-02-11T07:42:08.671Z,102261.16
2023-02-11T07:44:37.088Z,102273.66
2023-02-11T07:47:05.665Z,102275.34
2023-02-11T07:49:33.958Z,102277.28
2023-02-11T07:52:03.773Z,102282.88
2023-02-11T07:54:31.944Z,102272.63
2023-02-11T07:57:00.112Z,102271.66
2023-02-11T07:59:28.200Z,102273.50
2023-02-11T08:01:56.439Z,102273.16
2023-02-11T08:04:24.691Z,102268.50
2023-02-11T08:06:58.677Z,102278.88
2023-02-11T08:09:28.705Z,102270.81
2023-02-11T08:11:56.722Z,102276.19
2023-02-11T08:14:25.377Z,102269.09
2023-02-11T08:16:53.544Z,102269.28
2023-02-11T08:19:21.703Z,102274.47
2023-02-11T08:21:49.867Z,102276.84
2023-02-11T08:24:18.028Z,102285.97
2023-02-11T08:26:47.618Z,102282.00
2023-02-11T08:29:17.357Z,102284.41
2023-02-11T08:31:47.090Z,102281.63
2023-02-11T08:34:18.385Z,102282.47
2023-02-11T08:36:47.382Z,102294.09
2023-02-11T08:39:19.740Z,102300.34
2023-02-11T08:41:51.463Z,102298.19
2023-02-11T08:44:19.944Z,102301.66
2023-02-11T08:46:49.460Z,102301.88
2023-02-11T08:49:17.878Z,102311.53
2023-02-11T08:51:46.328Z,102301.66
2023-02-11T08:54:14.894Z,102298.75
2023-02-11T08:56:43.208Z,102297.03
2023-02-11T08:59:14.975Z,102303.19
2023-02-11T09:01:44.427Z,102302.41
2023-02-11T09:04:12.902Z,102301.78
2023-02-11T09:06:41.434Z,102303.50
2023-02-11T09:09:11.940Z,102313.09
2023-02-11T09:11:40.942Z,102316.00
2023-02-11T09:14:09.002Z,102319.34
2023-02-11T09:16:40.893Z,102325.59
2023-02-11T09:19:11.526Z,102314.63
2023-02-11T09:21:40.005Z,102300.09
2023-02-11T09:24:08.200Z,102302.56
2023-02-11T09:26:36.949Z,102300.66
2023-02-11T09:29:05.670Z,102305.94
2023-02-11T09:31:35.089Z,102310.13
2023-02-11T09:34:05.613Z,102311.09
2023-02-11T09:36:34.606Z,102312.19
2023-02-11T09:39:03.339Z,102313.34
2023-02-11T09:41:43.889Z,102307.53
2023-02-11T09:44:18.844Z,102305.63
2023-02-11T09:46:47.826Z,102310.16
2023-02-11T09:49:20.711Z,102308.22
2023-02-11T09:51:51.371Z,102316.63
2023-02-11T09:54:22.941Z,102322.41
2023-02-11T09:56:51.076Z,102317.69
2023-02-11T09:59:20.350Z,102309.50
2023-02-11T10:01:51.461Z,102317.47
2023-02-11T10:04:30.035Z,102325.09
2023-02-11T10:07:02.286Z,102325.53
2023-02-11T10:09:36.801Z,102333.63
2023-02-11T10:12:13.755Z,102337.47
2023-02-11T10:15:06.162Z,102330.56
2023-02-11T10:17:38.957Z,102334.22
2023-02-11T10:20:17.304Z,102324.66
2023-02-11T10:22:49.441Z,102350.63
2023-02-11T10:25:23.878Z,102349.69
2023-02-11T10:27:53.327Z,102347.16
2023-02-11T10:30:25.163Z,102343.66
2023-02-11T10:32:56.920Z,102335.81
2023-02-11T10:35:27.276Z,102319.00
2023-02-11T10:37:56.058Z,102315.56
2023-02-11T10:40:25.294Z,102310.81
2023-02-11T10:42:55.774Z,102296.53
2023-02-11T10:45:28.234Z,102305.16
2023-02-11T10:47:56.528Z,102293.75
2023-02-11T10:50:27.105Z,102290.72
2023-02-11T10:53:12.196Z,102289.47
2023-02-11T10:55:40.674Z,102292.69
2023-02-11T10:58:08.784Z,102303.38
2023-02-11T11:00:38.974Z,102298.22
2023-02-11T11:03:08.683Z,102288.03
2023-02-11T11:05:39.865Z,102278.94
2023-02-11T11:08:08.934Z,102282.16
2023-02-11T11:10:44.753Z,102279.31
2023-02-11T11:13:25.422Z,102279.69
2023-02-11T11:16:08.299Z,102279.91
2023-02-11T11:18:36.855Z,102274.88
2023-02-11T11:21:07.766Z,102286.78
2023-02-11T11:23:36.594Z,102294.41
2023-02-11T11:26:06.536Z,102296.38
2023-02-11T11:28:39.017Z,102295.78
2023-02-11T11:31:14.053Z,102302.78
2023-02-11T11:33:43.992Z,102300.81
2023-02-11T11:36:15.012Z,102288.13
2023-02-11T11:38:45.447Z,102286.69
2023-02-11T11:41:22.054Z,102279.91
2023-02-11T11:43:57.224Z,102290.47
2023-02-11T11:46:26.568Z,102276.72
2023-02-11T11:48:57.218Z,102270.56
2023-02-11T11:51:27.369Z,102269.22
2023-02-11T11:53:58.707Z,102266.41
2023-02-11T11:56:28.809Z,102270.56
2023-02-11T11:58:58.445Z,102264.06
2023-02-11T12:01:32.254Z,102260.25
2023-02-11T12:04:14.761Z,102267.75
2023-02-11T12:06:52.032Z,102261.00
2023-02-11T12:09:22.799Z,102258.53
2023-02-11T12:12:06.707Z,102256.59
2023-02-11T12:14:38.999Z,102257.19
2023-02-11T12:17:13.957Z,102253.63
2023-02-11T12:20:03.595Z,102260.00
2023-02-11T12:22:38.511Z,102259.28
2023-02-11T12:25:24.786Z,102266.91
2023-02-11T12:27:58.065Z,102262.47
2023-02-11T12:30:35.629Z,102261.63
2023-02-11T12:33:07.832Z,102259.75
2023-02-11T12:35:42.215Z,102250.94
2023-02-11T12:38:22.916Z,102252.66
2023-02-11T12:40:56.493Z,102244.53
2023-02-11T12:43:24.945Z,102249.94
2023-02-11T12:46:09.008Z,102247.00
2023-02-11T12:48:52.075Z,102250.94
2023-02-11T12:51:25.543Z,102247.97
2023-02-11T12:54:04.713Z,102244.78
2023-02-11T12:56:38.886Z,102239.84
2023-02-11T12:59:10.949Z,102232.84
2023-02-11T13:01:41.915Z,102239.97
2023-02-11T13:04:13.196Z,102233.09
2023-02-11T13:06:42.966Z,102238.38
2023-02-11T13:09:16.701Z,102236.19
2023-02-11T13:11:52.038Z,102237.16
2023-02-11T13:14:25.573Z,102239.38
2023-02-11T13:16:54.780Z,102235.91
2023-02-11T13:19:26.687Z,102237.66
2023-02-11T13:22:01.399Z,102238.38
2023-02-11T13:24:35.505Z,102238.63
2023-02-11T13:27:08.135Z,102235.44
2023-02-11T13:29:41.782Z,102232.97
2023-02-11T13:32:11.354Z,102237.38
2023-02-11T13:34:54.588Z,102235.19
2023-02-11T13:37:24.196Z,102232.97
2023-02-11T13:40:00.852Z,102231.41
2023-02-11T13:42:29.423Z,102231.00
2023-02-11T13:44:57.656Z,102233.84
2023-02-11T13:47:31.024Z,102235.53
2023-02-11T13:49:59.923Z,102238.25
2023-02-11T13:52:30.590Z,102225.72
2023-02-11T13:55:04.438Z,102222.06
2023-02-11T13:57:34.904Z,102219.00
2023-02-11T14:00:06.279Z,102217.50
2023-02-11T14:02:59.568Z,102224.63
2023-02-11T14:05:47.036Z,102224.84
2023-02-11T14:08:37.589Z,102219.94
2023-02-11T14:11:12.447Z,102224.84
2023-02-11T14:14:13.819Z,102219.44
2023-02-11T14:16:56.841Z,102223.16
2023-02-11T14:19:33.121Z,102221.03
2023-02-11T14:22:03.769Z,102216.66
2023-02-11T14:24:46.612Z,102212.34
2023-02-11T14:27:21.483Z,102200.06
2023-02-11T14:29:54.870Z,102203.00
2023-02-11T14:32:31.824Z,102202.75
2023-02-11T14:35:05.902Z,102193.19
2023-02-11T14:37:38.279Z,102201.88
2023-02-11T14:40:12.014Z,102200.19
2023-02-11T14:42:41.600Z,102196.13
2023-02-11T14:45:12.326Z,102201.66
2023-02-11T14:47:43.063Z,102201.03
2023-02-11T14:50:16.931Z,102211.59
2023-02-11T14:52:45.649Z,102203.97
2023-02-11T14:55:20.171Z,102196.38
2023-02-11T14:57:51.219Z,102198.94
2023-02-11T15:00:20.933Z,102197.09
2023-02-11T15:02:49.523Z,102202.00
2023-02-11T15:05:19.188Z,102202.50
2023-02-11T15:07:48.595Z,102200.31
2023-02-11T15:10:22.474Z,102190.84
2023-02-11T15:12:52.162Z,102196.84
2023-02-11T15:15:20.410Z,102196.72
2023-02-11T15:17:48.797Z,102199.06
2023-02-11T15:20:21.744Z,102198.31
2023-02-11T15:22:52.671Z,102195.38
2023-02-11T15:25:22.870Z,102198.19
2023-02-11T15:27:53.205Z,102190.06
2023-02-11T15:30:25.937Z,102190.72
2023-02-11T15:32:58.957Z,102192.78
2023-02-11T15:35:28.687Z,102197.09
2023-02-11T15:37:57.930Z,102196.94
2023-02-11T15:40:27.964Z,102197.06
2023-02-11T15:42:58.961Z,102200.72
2023-02-11T15:45:30.877Z,102198.66
2023-02-11T15:48:00.821Z,102202.22
2023-02-11T15:50:30.346Z,102202.47
2023-02-11T15:53:01.330Z,102202.69
2023-02-11T15:55:30.604Z,102205.28
2023-02-11T15:58:02.329Z,102198.03
2023-02-11T16:00:33.208Z,102206.13
2023-02-11T16:03:01.512Z,102202.69
2023-02-11T16:05:31.664Z,102201.22
2023-02-11T16:08:00.432Z,102204.88
2023-02-11T16:10:29.955Z,102198.03
2023-02-11T16:13:12.933Z,102202.66
2023-02-11T16:15:47.128Z,102193.84
2023-02-11T16:18:17.040Z,102198.47
2023-02-11T16:20:48.265Z,102207.47
2023-02-11T16:23:21.587Z,102204.59
2023-02-11T16:25:50.295Z,102209.28
2023-02-11T16:28:18.558Z,102203.50
2023-02-11T16:30:52.887Z,102200.69
2023-02-11T16:33:22.024Z,102203.84
2023-02-11T16:35:50.344Z,102199.19
2023-02-11T16:38:19.738Z,102199.88
2023-02-11T16:40:49.473Z,102196.34
2023-02-11T16:43:19.961Z,102192.03
2023-02-11T16:45:49.899Z,102191.50
2023-02-11T16:48:19.921Z,102187.22
2023-02-11T16:50:52.876Z,102188.31
2023-02-11T16:53:23.666Z,102185.91
2023-02-11T16:55:53.204Z,102187.56
2023-02-11T16:58:21.276Z,102197.91
2023-02-11T17:00:51.558Z,102197.38
2023-02-11T17:03:22.453Z,102192.00
2023-02-11T17:05:55.771Z,102193.44
2023-02-11T17:08:24.436Z,102193.78
2023-02-11T17:10:52.898Z,102188.94
2023-02-11T17:13:21.158Z,102198.53
2023-02-11T17:15:50.941Z,102202.63
2023-02-11T17:18:19.321Z,102200.16
2023-02-11T17:20:47.417Z,102199.44
2023-02-11T17:23:15.656Z,102199.44
2023-02-11T17:25:44.124Z,102200.63
2023-02-11T17:28:13.032Z,102205.59
2023-02-11T17:30:42.196Z,102209.38
2023-02-11T17:33:13.830Z,102210.59
2023-02-11T17:35:42.193Z,102209.84
2023-02-11T17:38:10.343Z,102213.09
2023-02-11T17:40:38.672Z,102218.28
2023-02-11T17:43:06.809Z,102213.97
2023-02-11T17:45:39.388Z,102223.31
2023-02-11T17:48:07.764Z,102223.25
2023-02-11T17:50:38.150Z,102223.91
2023-02-11T17:53:06.363Z,102223.25
2023-02-11T17:55:34.970Z,102233.78
2023-02-11T17:58:03.142Z,102229.41
2023-02-11T18:00:31.902Z,102231.56
2023-02-11T18:03:02.979Z,102232.75
2023-02-11T18:05:35.301Z,102235.97
2023-02-11T18:08:06.545Z,102240.09
2023-02-11T18:10:34.991Z,102240.41
2023-02-11T18:13:03.205Z,102233.19
2023-02-11T18:15:31.212Z,102231.25
2023-02-11T18:18:00.063Z,102224.03
2023-02-11T18:20:28.231Z,102241.78
2023-02-11T18:22:56.397Z,102240.09
2023-02-11T18:25:26.053Z,102242.25
2023-02-11T18:27:54.120Z,102242.69
2023-02-11T18:30:22.453Z,102241.69
2023-02-11T18:32:54.377Z,102246.34
2023-02-11T18:35:22.488Z,102253.47
2023-02-11T18:37:50.845Z,102262.41
2023-02-11T18:40:19.443Z,102257.34
2023-02-11T18:42:48.934Z,102258.00
2023-02-11T18:45:17.011Z,102254.09
2023-02-11T18:47:45.097Z,102256.19
2023-02-11T18:50:15.657Z,102247.22
2023-02-11T18:52:44.074Z,102249.16
2023-02-11T18:55:12.268Z,102235.16
2023-02-11T18:57:40.512Z,102230.94
2023-02-11T19:00:11.583Z,102237.09
2023-02-11T19:02:39.709Z,102236.16
2023-02-11T19:05:08.248Z,102231.72
2023-02-11T19:07:36.774Z,102236.88
2023-02-11T19:10:05.507Z,102240.44
2023-02-11T19:12:34.107Z,102242.72
2023-02-11T19:15:02.179Z,102240.53
2023-02-11T19:17:31.809Z,102232.69
2023-02-11T19:20:00.298Z,102233.63
2023-02-11T19:22:28.399Z,102238.28
2023-02-11T19:24:56.489Z,102239.03
2023-02-11T19:27:24.531Z,102236.34
2023-02-11T19:29:52.635Z,102235.59
2023-02-11T19:32:20.835Z,102226.75
2023-02-11T19:34:52.555Z,102231.16
2023-02-11T19:37:20.953Z,102224.06
2023-02-11T19:39:49.120Z,102221.59
2023-02-11T19:42:17.197Z,102225.28
2023-02-11T19:44:45.722Z,102216.41
2023-02-11T19:47:14.151Z,102219.00
2023-02-11T19:49:42.631Z,102218.16
2023-02-11T19:52:12.716Z,102229.66
2023-02-11T19:54:40.910Z,102227.19
2023-02-11T19:57:09.022Z,102220.84
2023-02-11T19:59:37.114Z,102215.78
2023-02-11T20:02:05.296Z,102215.78
2023-02-11T20:04:33.525Z,102215.13
2023-02-11T20:07:01.571Z,102218.59
2023-02-11T20:09:31.841Z,102216.84
2023-02-11T20:11:59.913Z,102216.84
2023-02-11T20:14:28.315Z,102210.81
2023-02-11T20:16:56.510Z,102220.94
2023-02-11T20:19:24.605Z,102216.53
2023-02-11T20:21:55.990Z,102215.34
2023-02-11T20:24:25.117Z,102210.19
2023-02-11T20:26:56.180Z,102213.63
2023-02-11T20:29:24.938Z,102225.28
2023-02-11T20:31:53.601Z,102223.53
2023-02-11T20:34:22.378Z,102227.41
2023-02-11T20:36:52.965Z,102232.91
2023-02-11T20:39:22.513Z,102224.59
2023-02-11T20:41:51.017Z,102226.34
2023-02-11T20:44:21.858Z,102233.44
2023-02-11T20:46:50.068Z,102233.44
2023-02-11T20:49:19.238Z,102228.25
2023-02-11T20:51:47.691Z,102236.34
2023-02-11T20:54:17.275Z,102237.50
2023-02-11T20:56:47.929Z,102241.81
2023-02-11T20:59:17.000Z,102244.41
2023-02-11T21:01:48.062Z,102240.13
2023-02-11T21:04:17.461Z,102235.59
2023-02-11T21:06:47.274Z,102245.50
2023-02-11T21:09:16.534Z,102241.19
2023-02-11T21:11:47.270Z,102236.31
2023-02-11T21:14:16.302Z,102239.47
2023-02-11T21:16:44.549Z,102236.75
2023-02-11T21:19:15.726Z,102245.59
2023-02-11T21:21:45.207Z,102245.81
2023-02-11T21:24:13.753Z,102237.19
2023-02-11T21:26:42.914Z,102238.81
2023-02-11T21:29:13.055Z,102237.94
2023-02-11T21:31:42.214Z,102245.28
2023-02-11T21:34:11.804Z,102242.47
2023-02-11T21:36:42.848Z,102245.06
2023-02-11T21:39:13.678Z,102245.06
2023-02-11T21:41:42.664Z,102247.19
2023-02-11T21:44:11.437Z,102242.97
2023-02-11T21:46:40.677Z,102249.88
2023-02-11T21:49:09.703Z,102249.13
2023-02-11T21:51:40.356Z,102252.47
2023-02-11T21:54:12.177Z,102248.06
2023-02-11T21:56:41.002Z,102253.25
2023-02-11T21:59:09.295Z,102251.50
2023-02-11T22:01:41.387Z,102251.63
2023-02-11T22:04:14.921Z,102250.88
2023-02-11T22:06:45.241Z,102256.78
2023-02-11T22:09:14.772Z,102261.22
2023-02-11T22:11:45.350Z,102266.38
2023-02-11T22:14:14.478Z,102267.44
2023-02-11T22:16:45.004Z,102266.81
2023-02-11T22:19:13.878Z,102264.22
2023-02-11T22:21:46.520Z,102267.09
2023-02-11T22:24:17.181Z,102261.81
2023-02-11T22:26:47.314Z,102268.31
2023-02-11T22:29:16.875Z,102274.31
2023-02-11T22:31:44.987Z,102273.56
2023-02-11T22:34:14.342Z,102267.41
2023-02-11T22:36:45.662Z,102265.41
2023-02-11T22:39:15.277Z,102277.00
2023-02-11T22:41:45.435Z,102269.16
2023-02-11T22:44:13.874Z,102268.94
2023-02-11T22:46:42.095Z,102263.78
2023-02-11T22:49:16.754Z,102268.31
2023-02-11T22:51:48.995Z,102269.78
2023-02-11T22:54:18.927Z,102267.00
2023-02-11T22:56:54.812Z,102265.72
2023-02-11T22:59:26.030Z,102266.69
2023-02-11T23:01:57.334Z,102262.03
2023-02-11T23:04:25.886Z,102259.44
2023-02-11T23:06:55.589Z,102264.72
2023-02-11T23:09:24.094Z,102267.41
2023-02-11T23:11:54.958Z,102262.03
2023-02-11T23:14:24.349Z,102262.81
2023-02-11T23:16:54.584Z,102269.91
2023-02-11T23:19:24.862Z,102277.97
2023-02-11T23:21:53.264Z,102264.41
2023-02-11T23:24:23.484Z,102265.50
2023-02-11T23:26:51.686Z,102269.16
2023-02-11T23:29:21.446Z,102263.22
2023-02-11T23:31:50.022Z,102267.41
2023-02-11T23:34:26.643Z,102271.84
2023-02-11T23:36:58.006Z,102269.16
2023-02-11T23:39:28.631Z,102267.41
2023-02-11T23:42:00.114Z,102274.75
2023-02-11T23:44:31.167Z,102272.16
2023-02-11T23:47:00.749Z,102281.28
2023-02-11T23:49:28.897Z,102279.03
2023-02-11T23:51:58.725Z,102289.59
2023-02-11T23:54:28.509Z,102286.31
2023-02-11T23:56:57.251Z,102282.69
2023-02-11T23:59:27.023Z,102282.00
